createdAt,value
2018-11-27T00:00:03.391Z,53.03
2018-11-27T00:02:30.984Z,50.37
2018-11-27T00:04:58.587Z,51.60
2018-11-27T00:07:26.171Z,50.50
2018-11-27T00:09:54.111Z,51.93
2018-11-27T00:12:21.685Z,50.93
2018-11-27T00:14:49.506Z,48.50
2018-11-27T00:17:17.088Z,47.67
2018-11-27T00:19:44.659Z,51.47
2018-11-27T00:22:12.232Z,53.47
2018-11-27T00:24:39.807Z,48.23
2018-11-27T00:27:07.387Z,49.50
2018-11-27T00:29:34.936Z,48.50
2018-11-27T00:32:02.516Z,49.27
2018-11-27T00:34:30.060Z,49.10
2018-11-27T00:36:57.595Z,52.67
2018-11-27T00:39:25.143Z,48.90
2018-11-27T00:41:52.680Z,52.43
2018-11-27T00:44:20.270Z,48.97
2018-11-27T00:46:47.816Z,45.50
2018-11-27T00:49:15.375Z,45.43
2018-11-27T00:51:42.926Z,51.00
2018-11-27T00:54:10.663Z,54.00
2018-11-27T00:56:38.221Z,47.87
2018-11-27T00:59:05.913Z,48.60
2018-11-27T01:01:33.498Z,51.60
2018-11-27T01:04:01.083Z,48.97
2018-11-27T01:06:28.667Z,47.73
2018-11-27T01:08:56.271Z,48.33
2018-11-27T01:11:23.835Z,52.70
2018-11-27T01:13:51.441Z,50.47
2018-11-27T01:16:18.988Z,44.17
2018-11-27T01:18:46.563Z,47.50
2018-11-27T01:21:14.135Z,48.93
2018-11-27T01:23:41.699Z,49.67
2018-11-27T01:26:09.395Z,49.00
2018-11-27T01:28:36.982Z,49.60
2018-11-27T01:31:05.000Z,50.87
2018-11-27T01:33:32.616Z,46.13
2018-11-27T01:36:00.156Z,51.30
2018-11-27T01:38:27.799Z,52.27
2018-11-27T01:40:55.363Z,50.97
2018-11-27T01:43:22.929Z,50.13
2018-11-27T01:45:50.468Z,47.43
2018-11-27T01:48:24.172Z,48.07
2018-11-27T01:50:51.711Z,49.10
2018-11-27T01:53:19.267Z,47.00
2018-11-27T01:55:46.819Z,48.43
2018-11-27T01:58:14.503Z,46.67
2018-11-27T02:00:42.060Z,48.53
2018-11-27T02:03:09.652Z,47.43
2018-11-27T02:05:37.207Z,47.50
2018-11-27T02:08:05.215Z,47.53
2018-11-27T02:10:32.771Z,51.97
2018-11-27T02:13:01.405Z,48.00
2018-11-27T02:15:28.677Z,49.33
2018-11-27T02:17:56.311Z,48.97
2018-11-27T02:20:23.903Z,48.23
2018-11-27T02:22:52.507Z,45.67
2018-11-27T02:25:22.003Z,49.87
2018-11-27T02:27:49.640Z,49.27
2018-11-27T02:30:19.126Z,52.20
2018-11-27T02:32:46.731Z,49.77
2018-11-27T02:35:16.486Z,47.23
2018-11-27T02:37:44.205Z,47.77
2018-11-27T02:40:13.896Z,49.17
2018-11-27T02:42:41.566Z,49.63
2018-11-27T02:45:13.545Z,48.93
2018-11-27T02:47:41.387Z,52.30
2018-11-27T02:50:10.160Z,50.63
2018-11-27T02:52:41.759Z,47.87
2018-11-27T02:55:11.540Z,50.00
2018-11-27T02:57:39.546Z,50.43
2018-11-27T03:00:14.772Z,50.57
2018-11-27T03:02:42.360Z,47.97
2018-11-27T03:05:11.281Z,53.00
2018-11-27T03:07:38.952Z,50.40
2018-11-27T03:10:09.083Z,50.33
2018-11-27T03:12:36.840Z,52.13
2018-11-27T03:15:05.599Z,49.07
2018-11-27T03:17:33.137Z,47.70
2018-11-27T03:20:00.773Z,52.83
2018-11-27T03:22:28.419Z,49.43
2018-11-27T03:24:55.984Z,49.40
2018-11-27T03:27:23.539Z,48.27
2018-11-27T03:29:51.112Z,53.53
2018-11-27T03:32:18.656Z,51.93
2018-11-27T03:34:46.276Z,50.47
2018-11-27T03:37:13.825Z,48.60
2018-11-27T03:39:41.403Z,50.77
2018-11-27T03:42:08.945Z,52.67
2018-11-27T03:44:36.509Z,54.33
2018-11-27T03:47:04.284Z,53.27
2018-11-27T03:49:31.863Z,48.60
2018-11-27T03:51:59.424Z,49.73
2018-11-27T03:54:27.023Z,55.50
2018-11-27T03:56:54.576Z,52.23
2018-11-27T03:59:22.183Z,53.27
2018-11-27T04:01:49.738Z,49.90
2018-11-27T04:04:17.431Z,49.73
2018-11-27T04:06:44.972Z,52.53
2018-11-27T04:09:12.504Z,54.53
2018-11-27T04:11:40.100Z,54.17
2018-11-27T04:14:07.675Z,50.87
2018-11-27T04:16:35.235Z,48.80
2018-11-27T04:19:02.804Z,51.17
2018-11-27T04:21:31.410Z,51.20
2018-11-27T04:23:59.820Z,52.63
2018-11-27T04:26:27.820Z,51.77
2018-11-27T04:28:55.380Z,52.60
2018-11-27T04:31:22.947Z,51.77
2018-11-27T04:33:50.523Z,53.53
2018-11-27T04:36:23.002Z,52.00
2018-11-27T04:38:50.548Z,46.47
2018-11-27T04:41:18.212Z,51.60
2018-11-27T04:43:46.208Z,49.93
2018-11-27T04:46:13.792Z,52.47
2018-11-27T04:48:41.393Z,48.97
2018-11-27T04:51:08.995Z,50.27
2018-11-27T04:53:48.692Z,51.33
2018-11-27T04:56:16.932Z,47.77
2018-11-27T04:58:44.495Z,51.43
2018-11-27T05:01:12.071Z,54.07
2018-11-27T05:03:39.630Z,49.63
2018-11-27T05:06:07.204Z,52.90
2018-11-27T05:08:34.771Z,51.93
2018-11-27T05:11:02.334Z,51.77
2018-11-27T05:13:29.873Z,48.87
2018-11-27T05:15:57.431Z,51.40
2018-11-27T05:18:24.968Z,47.93
2018-11-27T05:20:52.543Z,51.43
2018-11-27T05:23:20.115Z,47.67
2018-11-27T05:25:47.747Z,49.63
2018-11-27T05:28:15.308Z,50.53
2018-11-27T05:30:42.887Z,50.50
2018-11-27T05:33:10.516Z,53.27
2018-11-27T05:35:38.086Z,54.10
2018-11-27T05:38:05.923Z,52.07
2018-11-27T05:40:33.511Z,53.03
2018-11-27T05:43:05.719Z,49.57
2018-11-27T05:45:33.312Z,51.00
2018-11-27T05:48:00.859Z,91.83
2018-11-27T05:50:28.419Z,85.37
2018-11-27T05:52:55.955Z,52.33
2018-11-27T05:55:23.704Z,48.33
2018-11-27T05:58:54.032Z,49.87
2018-11-27T06:01:21.711Z,50.57
2018-11-27T06:03:49.355Z,50.13
2018-11-27T06:06:16.928Z,52.33
2018-11-27T06:08:44.501Z,49.77
2018-11-27T06:11:12.116Z,49.90
2018-11-27T06:13:39.673Z,53.63
2018-11-27T06:16:07.279Z,50.40
2018-11-27T06:18:34.833Z,49.40
2018-11-27T06:21:02.503Z,48.73
2018-11-27T06:23:30.040Z,47.73
2018-11-27T06:25:57.675Z,49.27
2018-11-27T06:28:25.360Z,50.87
2018-11-27T06:30:52.935Z,53.63
2018-11-27T06:33:20.483Z,48.60
2018-11-27T06:35:48.037Z,47.13
2018-11-27T06:38:15.691Z,48.33
2018-11-27T06:40:43.312Z,46.87
2018-11-27T06:43:11.848Z,47.97
2018-11-27T06:45:40.407Z,52.27
2018-11-27T06:48:08.264Z,49.60
2018-11-27T06:50:35.855Z,53.60
2018-11-27T06:53:04.000Z,44.30
2018-11-27T06:55:31.592Z,50.80
2018-11-27T06:57:59.183Z,49.03
2018-11-27T07:00:27.824Z,50.63
2018-11-27T07:02:56.023Z,53.07
2018-11-27T07:05:23.656Z,48.53
2018-11-27T07:07:51.251Z,49.83
2018-11-27T07:10:20.107Z,46.40
2018-11-27T07:12:48.651Z,47.43
2018-11-27T07:15:18.357Z,48.27
2018-11-27T07:17:45.978Z,66.33
2018-11-27T07:20:13.583Z,80.53
2018-11-27T07:22:41.744Z,51.23
2018-11-27T07:25:12.707Z,47.13
2018-11-27T07:27:41.735Z,45.77
2018-11-27T07:30:14.406Z,50.30
2018-11-27T07:32:42.796Z,49.60
2018-11-27T07:35:12.212Z,48.77
2018-11-27T07:37:40.590Z,55.30
2018-11-27T07:40:09.948Z,52.87
2018-11-27T07:42:37.691Z,54.50
2018-11-27T07:45:09.183Z,49.13
2018-11-27T07:47:36.795Z,47.07
2018-11-27T07:50:04.560Z,49.33
2018-11-27T07:52:32.205Z,51.70
2018-11-27T07:54:59.808Z,51.47
2018-11-27T07:57:27.619Z,47.67
2018-11-27T07:59:55.323Z,49.73
2018-11-27T08:02:22.928Z,45.83
2018-11-27T08:04:51.002Z,51.03
2018-11-27T08:07:18.623Z,49.43
2018-11-27T08:09:46.973Z,50.90
2018-11-27T08:12:14.700Z,52.13
2018-11-27T08:14:42.523Z,47.67
2018-11-27T08:17:10.187Z,50.63
2018-11-27T08:19:37.767Z,51.87
2018-11-27T08:22:05.744Z,49.83
2018-11-27T08:24:33.409Z,51.20
2018-11-27T08:27:01.159Z,50.43
2018-11-27T08:29:29.340Z,49.53
2018-11-27T08:31:56.963Z,55.70
2018-11-27T08:34:24.557Z,50.00
2018-11-27T08:36:52.143Z,49.10
2018-11-27T08:39:19.775Z,49.33
2018-11-27T08:41:47.364Z,49.87
2018-11-27T08:44:15.124Z,51.17
2018-11-27T08:46:42.708Z,97.93
2018-11-27T08:49:10.343Z,112.43
2018-11-27T08:51:37.927Z,56.40
2018-11-27T08:54:05.883Z,47.67
2018-11-27T08:56:33.535Z,46.50
2018-11-27T08:59:01.181Z,46.67
2018-11-27T09:01:28.933Z,48.67
2018-11-27T09:03:56.563Z,47.80
2018-11-27T09:06:24.187Z,46.80
2018-11-27T09:08:51.934Z,46.27
2018-11-27T09:11:19.559Z,48.27
2018-11-27T09:13:47.167Z,46.77
2018-11-27T09:16:14.786Z,46.70
2018-11-27T09:18:48.557Z,42.90
2018-11-27T09:21:16.156Z,45.53
2018-11-27T09:23:43.782Z,46.60
2018-11-27T09:26:11.436Z,42.07
2018-11-27T09:28:39.040Z,57.13
2018-11-27T09:31:07.519Z,58.00
2018-11-27T09:33:35.148Z,60.17
2018-11-27T09:36:02.753Z,49.50
2018-11-27T09:38:30.452Z,46.47
2018-11-27T09:40:58.042Z,51.10
2018-11-27T09:43:25.645Z,47.10
2018-11-27T09:45:54.140Z,48.03
2018-11-27T09:48:21.751Z,40.77
2018-11-27T09:50:49.349Z,48.07
2018-11-27T09:53:16.961Z,45.87
2018-11-27T09:55:44.606Z,45.47
2018-11-27T09:58:13.895Z,42.20
2018-11-27T10:00:41.612Z,40.97
2018-11-27T10:03:12.579Z,44.00
2018-11-27T10:05:40.196Z,41.90
2018-11-27T10:08:08.360Z,40.80
2018-11-27T10:10:35.999Z,42.57
2018-11-27T10:13:03.659Z,35.63
2018-11-27T10:15:31.534Z,35.30
2018-11-27T10:18:00.236Z,35.23
2018-11-27T10:20:42.998Z,31.07
2018-11-27T10:23:12.639Z,31.33
2018-11-27T10:25:40.282Z,29.77
2018-11-27T10:28:13.892Z,24.47
2018-11-27T10:30:41.535Z,25.67
2018-11-27T10:33:10.301Z,24.17
2018-11-27T10:35:46.539Z,25.70
2018-11-27T10:38:14.136Z,22.60
2018-11-27T10:40:41.879Z,25.00
2018-11-27T10:43:09.511Z,22.03
2018-11-27T10:45:37.123Z,22.93
2018-11-27T10:48:04.815Z,20.93
2018-11-27T10:50:32.436Z,20.23
2018-11-27T10:53:00.076Z,22.23
2018-11-27T10:55:27.782Z,22.97
2018-11-27T10:57:55.734Z,24.70
2018-11-27T11:00:30.535Z,22.40
2018-11-27T11:04:03.327Z,23.03
2018-11-27T11:06:31.556Z,21.20
2018-11-27T11:08:59.483Z,21.33
2018-11-27T11:11:27.232Z,20.43
2018-11-27T11:13:54.893Z,22.07
2018-11-27T11:16:22.483Z,21.53
2018-11-27T11:18:50.155Z,22.17
2018-11-27T11:21:17.810Z,67.23
2018-11-27T11:23:45.404Z,92.60
2018-11-27T11:26:13.040Z,28.30
2018-11-27T11:28:40.639Z,20.77
2018-11-27T11:31:08.255Z,21.03
2018-11-27T11:33:36.421Z,24.13
2018-11-27T11:36:04.143Z,23.50
2018-11-27T11:38:31.764Z,20.40
2018-11-27T11:40:59.963Z,22.90
2018-11-27T11:43:27.568Z,21.53
2018-11-27T11:45:55.691Z,21.33
2018-11-27T11:48:23.725Z,22.33
2018-11-27T11:50:57.411Z,20.67
2018-11-27T11:53:25.011Z,18.20
2018-11-27T11:55:52.624Z,19.07
2018-11-27T11:58:20.216Z,18.00
2018-11-27T12:00:54.299Z,17.87
2018-11-27T12:03:21.915Z,14.40
2018-11-27T12:05:51.999Z,10.80
2018-11-27T12:08:19.709Z,12.00
2018-11-27T12:10:47.833Z,10.93
2018-11-27T12:13:15.436Z,11.60
2018-11-27T12:15:43.051Z,10.63
2018-11-27T12:18:10.642Z,11.13
2018-11-27T12:20:39.322Z,9.63
2018-11-27T12:23:09.693Z,11.57
2018-11-27T12:25:36.889Z,11.07
2018-11-27T12:28:06.768Z,9.67
2018-11-27T12:30:34.412Z,13.43
2018-11-27T12:33:01.971Z,10.83
2018-11-27T12:35:29.595Z,13.03
2018-11-27T12:38:01.048Z,14.17
2018-11-27T12:40:28.975Z,12.50
2018-11-27T12:42:57.043Z,12.57
2018-11-27T12:45:26.527Z,12.03
2018-11-27T12:47:54.724Z,11.37
2018-11-27T12:50:24.508Z,12.23
2018-11-27T12:52:52.160Z,12.07
2018-11-27T12:55:21.772Z,14.27
2018-11-27T12:57:49.441Z,27.33
2018-11-27T13:00:20.015Z,119.73
2018-11-27T13:02:47.859Z,13.23
2018-11-27T13:05:17.927Z,11.90
2018-11-27T13:07:45.678Z,11.37
2018-11-27T13:10:15.199Z,10.10
2018-11-27T13:12:43.339Z,11.57
2018-11-27T13:15:12.231Z,9.80
2018-11-27T13:17:40.725Z,11.50
2018-11-27T13:20:11.821Z,10.77
2018-11-27T13:22:39.738Z,10.80
2018-11-27T13:25:10.102Z,9.90
2018-11-27T13:27:37.731Z,10.83
2018-11-27T13:30:10.483Z,10.00
2018-11-27T13:32:38.168Z,11.70
2018-11-27T13:35:07.447Z,11.13
2018-11-27T13:37:35.103Z,11.73
2018-11-27T13:40:02.759Z,12.93
2018-11-27T13:42:30.372Z,12.80
2018-11-27T13:44:57.990Z,13.60
2018-11-27T13:47:25.695Z,13.63
2018-11-27T13:49:53.325Z,12.40
2018-11-27T13:52:21.011Z,11.73
2018-11-27T13:54:48.627Z,11.20
2018-11-27T13:57:16.338Z,10.63
2018-11-27T13:59:43.963Z,12.07
2018-11-27T14:02:11.595Z,12.03
2018-11-27T14:04:39.173Z,11.40
2018-11-27T14:07:07.543Z,10.73
2018-11-27T14:09:35.137Z,12.70
2018-11-27T14:12:02.876Z,14.23
2018-11-27T14:14:30.464Z,12.30
2018-11-27T14:16:58.148Z,10.97
2018-11-27T14:19:25.711Z,10.40
2018-11-27T14:21:53.442Z,10.53
2018-11-27T14:24:21.069Z,12.50
2018-11-27T14:26:48.680Z,11.80
2018-11-27T14:29:16.382Z,10.87
2018-11-27T14:31:44.143Z,12.13
2018-11-27T14:34:11.724Z,14.40
2018-11-27T14:36:39.319Z,14.60
2018-11-27T14:39:09.529Z,17.60
2018-11-27T14:41:37.252Z,15.67
2018-11-27T14:44:05.999Z,15.30
2018-11-27T14:46:33.632Z,16.27
2018-11-27T14:49:01.223Z,17.03
2018-11-27T14:51:28.861Z,38.57
2018-11-27T14:53:56.511Z,32.03
2018-11-27T14:56:24.104Z,16.90
2018-11-27T14:58:51.708Z,15.17
2018-11-27T15:01:20.020Z,15.50
2018-11-27T15:03:47.623Z,17.00
2018-11-27T15:06:15.211Z,18.43
2018-11-27T15:08:44.620Z,16.13
2018-11-27T15:11:12.754Z,17.40
2018-11-27T15:13:39.867Z,19.80
2018-11-27T15:16:07.632Z,20.07
2018-11-27T15:18:35.243Z,18.10
2018-11-27T15:21:02.883Z,19.30
2018-11-27T15:23:30.493Z,19.40
2018-11-27T15:25:58.084Z,20.97
2018-11-27T15:28:25.677Z,18.90
2018-11-27T15:30:53.274Z,22.97
2018-11-27T15:33:20.955Z,21.23
2018-11-27T15:35:48.547Z,20.60
2018-11-27T15:38:16.158Z,20.77
2018-11-27T15:40:43.763Z,20.37
2018-11-27T15:43:11.416Z,18.03
2018-11-27T15:45:39.131Z,19.17
2018-11-27T15:48:07.813Z,18.37
2018-11-27T15:50:35.436Z,17.77
2018-11-27T15:53:03.179Z,20.23
2018-11-27T15:55:31.949Z,18.37
2018-11-27T15:58:02.475Z,19.10
2018-11-27T16:00:30.114Z,89.33
2018-11-27T16:02:57.783Z,39.93
2018-11-27T16:05:25.382Z,22.30
2018-11-27T16:07:53.023Z,19.80
2018-11-27T16:10:20.673Z,17.73
2018-11-27T16:12:48.472Z,20.07
2018-11-27T16:15:18.167Z,19.47
2018-11-27T16:17:46.004Z,19.00
2018-11-27T16:20:15.644Z,17.93
2018-11-27T16:22:44.912Z,19.27
2018-11-27T16:25:13.599Z,16.33
2018-11-27T16:27:41.240Z,17.07
2018-11-27T16:30:15.716Z,16.50
2018-11-27T16:32:43.438Z,17.63
2018-11-27T16:35:11.739Z,18.23
2018-11-27T16:37:39.662Z,18.10
2018-11-27T16:40:16.521Z,15.67
2018-11-27T16:42:44.138Z,15.40
2018-11-27T16:45:14.852Z,18.50
2018-11-27T16:47:42.816Z,16.83
2018-11-27T16:50:11.643Z,15.23
2018-11-27T16:52:39.311Z,17.27
2018-11-27T16:55:08.554Z,19.10
2018-11-27T16:57:36.778Z,15.07
2018-11-27T17:00:12.038Z,14.83
2018-11-27T17:02:41.387Z,16.67
2018-11-27T17:05:09.157Z,86.00
2018-11-27T17:07:36.755Z,38.33
2018-11-27T17:10:07.387Z,22.33
2018-11-27T17:12:35.223Z,15.33
2018-11-27T17:15:02.895Z,16.00
2018-11-27T17:17:30.559Z,15.83
2018-11-27T17:19:58.211Z,15.87
2018-11-27T17:22:25.811Z,15.87
2018-11-27T17:24:53.467Z,15.77
2018-11-27T17:27:21.540Z,17.47
2018-11-27T17:29:49.151Z,19.53
2018-11-27T17:32:17.055Z,21.03
2018-11-27T17:34:44.673Z,19.73
2018-11-27T17:37:12.279Z,21.60
2018-11-27T17:39:40.167Z,19.40
2018-11-27T17:42:07.779Z,19.30
2018-11-27T17:44:35.684Z,15.90
2018-11-27T17:47:03.283Z,20.97
2018-11-27T17:49:30.884Z,18.20
2018-11-27T17:51:58.459Z,21.50
2018-11-27T17:54:26.090Z,19.63
2018-11-27T17:56:53.681Z,19.43
2018-11-27T17:59:21.287Z,18.40
2018-11-27T18:01:48.939Z,19.77
2018-11-27T18:04:16.568Z,20.67
2018-11-27T18:06:47.937Z,21.30
2018-11-27T18:09:15.545Z,22.40
2018-11-27T18:11:43.147Z,21.90
2018-11-27T18:14:10.765Z,20.17
2018-11-27T18:16:38.385Z,23.67
2018-11-27T18:19:06.308Z,20.70
2018-11-27T18:21:33.924Z,22.50
2018-11-27T18:24:01.661Z,23.83
2018-11-27T18:26:29.403Z,20.47
2018-11-27T18:28:57.208Z,24.13
2018-11-27T18:31:24.787Z,24.70
2018-11-27T18:33:52.967Z,24.13
2018-11-27T18:36:25.712Z,25.77
2018-11-27T18:38:48.246Z,23.30
2018-11-27T18:41:15.895Z,91.13
2018-11-27T18:43:43.489Z,39.90
2018-11-27T18:46:11.111Z,82.83
2018-11-27T18:48:38.817Z,25.00
2018-11-27T18:51:06.487Z,22.73
2018-11-27T18:53:34.231Z,25.73
2018-11-27T18:56:01.823Z,22.17
2018-11-27T18:58:30.276Z,23.33
2018-11-27T19:00:57.880Z,24.97
2018-11-27T19:03:25.503Z,24.57
2018-11-27T19:05:53.098Z,20.37
2018-11-27T19:08:20.711Z,22.90
2018-11-27T19:10:48.874Z,22.50
2018-11-27T19:13:16.908Z,23.83
2018-11-27T19:15:46.819Z,25.57
2018-11-27T19:18:23.251Z,24.00
2018-11-27T19:20:50.944Z,23.37
2018-11-27T19:23:19.679Z,23.20
2018-11-27T19:25:47.292Z,25.50
2018-11-27T19:28:15.437Z,23.80
2018-11-27T19:30:43.100Z,24.77
2018-11-27T19:33:10.740Z,24.67
2018-11-27T19:35:38.656Z,25.93
2018-11-27T19:38:08.827Z,29.47
2018-11-27T19:40:36.971Z,25.43
2018-11-27T19:43:04.954Z,25.13
2018-11-27T19:45:32.574Z,26.47
2018-11-27T19:48:00.263Z,26.50
2018-11-27T19:50:27.858Z,24.07
2018-11-27T19:52:56.064Z,25.47
2018-11-27T19:55:23.840Z,24.47
2018-11-27T19:57:51.452Z,26.67
2018-11-27T20:00:21.115Z,37.50
2018-11-27T20:02:48.819Z,50.07
2018-11-27T20:05:19.744Z,28.37
2018-11-27T20:07:47.534Z,24.63
2018-11-27T20:10:15.483Z,29.43
2018-11-27T20:12:43.103Z,27.57
2018-11-27T20:15:16.898Z,28.17
2018-11-27T20:17:44.767Z,26.00
2018-11-27T20:20:13.499Z,26.00
2018-11-27T20:22:41.126Z,25.67
2018-11-27T20:25:10.535Z,27.83
2018-11-27T20:27:38.624Z,26.33
2018-11-27T20:30:11.460Z,28.37
2018-11-27T20:32:39.153Z,26.20
2018-11-27T20:35:08.508Z,25.87
2018-11-27T20:37:36.217Z,26.33
2018-11-27T20:40:07.446Z,26.63
2018-11-27T20:42:35.207Z,25.97
2018-11-27T20:45:03.004Z,27.07
2018-11-27T20:47:30.602Z,26.40
2018-11-27T20:49:58.340Z,26.23
2018-11-27T20:52:26.943Z,26.67
2018-11-27T20:54:54.543Z,31.13
2018-11-27T20:57:22.884Z,28.03
2018-11-27T20:59:50.495Z,26.87
2018-11-27T21:02:18.115Z,24.63
2018-11-27T21:04:45.787Z,27.43
2018-11-27T21:07:13.431Z,28.07
2018-11-27T21:09:41.032Z,28.60
2018-11-27T21:12:08.647Z,31.43
2018-11-27T21:14:36.247Z,27.87
2018-11-27T21:17:03.972Z,24.97
2018-11-27T21:19:31.567Z,26.20
2018-11-27T21:21:59.199Z,28.47
2018-11-27T21:24:26.791Z,26.93
2018-11-27T21:26:54.400Z,28.27
2018-11-27T21:29:22.033Z,26.97
2018-11-27T21:31:49.680Z,26.40
2018-11-27T21:34:17.289Z,24.47
2018-11-27T21:36:44.987Z,25.13
2018-11-27T21:39:12.571Z,26.03
2018-11-27T21:41:40.215Z,28.17
2018-11-27T21:44:07.800Z,25.30
2018-11-27T21:46:35.431Z,29.13
2018-11-27T21:49:03.072Z,26.20
2018-11-27T21:51:30.711Z,24.97
2018-11-27T21:53:58.311Z,24.73
2018-11-27T21:56:25.933Z,23.93
2018-11-27T21:58:53.532Z,26.70
2018-11-27T22:01:21.153Z,25.97
2018-11-27T22:03:48.735Z,24.50
2018-11-27T22:06:16.339Z,25.20
2018-11-27T22:08:47.391Z,24.37
2018-11-27T22:11:15.031Z,26.43
2018-11-27T22:13:42.615Z,22.33
2018-11-27T22:16:10.360Z,24.93
2018-11-27T22:18:37.993Z,22.73
2018-11-27T22:21:05.772Z,24.17
2018-11-27T22:23:33.866Z,25.23
2018-11-27T22:26:01.459Z,26.70
2018-11-27T22:28:29.231Z,25.67
2018-11-27T22:30:56.809Z,24.17
2018-11-27T22:33:24.407Z,26.27
2018-11-27T22:35:51.991Z,24.33
2018-11-27T22:38:20.148Z,24.00
2018-11-27T22:40:47.708Z,25.27
2018-11-27T22:43:15.316Z,25.17
2018-11-27T22:45:42.964Z,27.13
2018-11-27T22:48:12.178Z,24.97
2018-11-27T22:50:39.121Z,26.23
2018-11-27T22:53:07.607Z,26.43
2018-11-27T22:55:35.323Z,26.43
2018-11-27T22:58:03.320Z,25.73
2018-11-27T23:00:36.372Z,28.00
2018-11-27T23:03:04.227Z,26.60
2018-11-27T23:05:31.807Z,25.33
2018-11-27T23:07:59.475Z,27.43
2018-11-27T23:10:28.450Z,25.03
2018-11-27T23:12:56.308Z,24.97
2018-11-27T23:15:24.052Z,27.97
2018-11-27T23:17:51.715Z,26.53
2018-11-27T23:20:19.769Z,26.23
2018-11-27T23:22:47.411Z,25.40
2018-11-27T23:25:15.975Z,24.00
2018-11-27T23:27:43.628Z,26.10
2018-11-27T23:30:13.223Z,25.57
2018-11-27T23:32:40.906Z,27.57
2018-11-27T23:35:08.705Z,25.87
2018-11-27T23:37:36.429Z,27.57
2018-11-27T23:40:05.922Z,27.27
2018-11-27T23:42:33.639Z,26.43
2018-11-27T23:45:01.304Z,25.33
2018-11-27T23:47:28.899Z,25.60
2018-11-27T23:49:56.480Z,25.87
2018-11-27T23:52:24.103Z,30.80
2018-11-27T23:54:51.691Z,24.63
2018-11-27T23:57:19.288Z,27.30
2018-11-27T23:59:47.015Z,27.27
